createdAt,value
2019-05-02T00:01:06.134Z,7.10
2019-05-02T00:03:36.025Z,7.17
2019-05-02T00:06:07.387Z,7.46
2019-05-02T00:08:34.333Z,7.74
2019-05-02T00:11:02.069Z,8.39
2019-05-02T00:13:29.667Z,7.30
2019-05-02T00:15:58.053Z,7.35
2019-05-02T00:18:26.282Z,7.91
2019-05-02T00:20:57.117Z,7.59
2019-05-02T00:23:27.785Z,6.48
2019-05-02T00:25:52.956Z,6.99
2019-05-02T00:28:21.409Z,6.56
2019-05-02T00:30:48.750Z,6.08
2019-05-02T00:33:16.191Z,6.51
2019-05-02T00:35:46.092Z,7.13
2019-05-02T00:38:12.752Z,6.60
2019-05-02T00:40:40.071Z,6.73
2019-05-02T00:43:07.466Z,6.48
2019-05-02T00:45:34.862Z,7.28
2019-05-02T00:48:08.702Z,6.97
2019-05-02T00:50:40.596Z,5.88
2019-05-02T00:53:12.038Z,5.66
2019-05-02T00:55:36.912Z,6.25
2019-05-02T00:58:04.472Z,7.26
2019-05-02T01:00:37.768Z,6.71
2019-05-02T01:03:05.070Z,7.36
2019-05-02T01:05:33.705Z,6.18
2019-05-02T01:08:03.041Z,6.88
2019-05-02T01:10:30.751Z,6.40
2019-05-02T01:12:58.084Z,7.38
2019-05-02T01:15:25.431Z,7.48
2019-05-02T01:17:52.740Z,6.05
2019-05-02T01:20:22.221Z,6.81
2019-05-02T01:22:52.354Z,6.95
2019-05-02T01:25:18.465Z,6.06
2019-05-02T01:28:12.606Z,6.29
2019-05-02T01:31:02.475Z,5.57
2019-05-02T01:33:41.801Z,5.53
2019-05-02T01:36:24.373Z,6.70
2019-05-02T01:38:51.659Z,6.14
2019-05-02T01:41:18.951Z,5.98
2019-05-02T01:43:46.265Z,6.24
2019-05-02T01:46:17.231Z,5.77
2019-05-02T01:48:45.926Z,5.84
2019-05-02T01:51:12.212Z,6.14
2019-05-02T01:53:39.589Z,5.32
2019-05-02T01:56:06.974Z,5.00
2019-05-02T01:58:34.292Z,5.61
2019-05-02T02:01:01.710Z,5.69
2019-05-02T02:03:29.021Z,6.49
2019-05-02T02:05:56.318Z,6.29
2019-05-02T02:08:27.404Z,6.17
2019-05-02T02:10:56.047Z,6.18
2019-05-02T02:13:22.334Z,6.53
2019-05-02T02:15:49.630Z,5.19
2019-05-02T02:18:22.366Z,5.47
2019-05-02T02:21:03.833Z,5.70
2019-05-02T02:23:53.359Z,5.63
2019-05-02T02:26:21.073Z,5.96
2019-05-02T02:28:48.373Z,5.80
2019-05-02T02:31:19.272Z,5.17
2019-05-02T02:33:48.041Z,5.73
2019-05-02T02:36:15.790Z,5.35
2019-05-02T02:38:43.101Z,5.28
2019-05-02T02:41:12.961Z,4.83
2019-05-02T02:43:40.024Z,5.44
2019-05-02T02:46:16.680Z,5.26
2019-05-02T02:48:43.971Z,5.95
2019-05-02T02:51:22.013Z,5.96
2019-05-02T02:53:40.571Z,5.75
2019-05-02T02:56:08.085Z,5.51
2019-05-02T02:58:45.665Z,4.82
2019-05-02T03:01:05.452Z,5.01
2019-05-02T03:03:35.212Z,4.82
2019-05-02T03:06:05.597Z,5.14
2019-05-02T03:08:31.239Z,5.49
2019-05-02T03:10:58.752Z,6.15
2019-05-02T03:13:53.350Z,6.27
2019-05-02T03:16:23.240Z,5.75
2019-05-02T03:18:50.551Z,4.66
2019-05-02T03:21:20.349Z,5.68
2019-05-02T03:23:47.053Z,5.40
2019-05-02T03:26:15.592Z,5.02
2019-05-02T03:28:43.727Z,4.95
2019-05-02T03:31:23.842Z,6.19
2019-05-02T03:33:54.717Z,5.42
2019-05-02T03:36:26.126Z,5.80
2019-05-02T03:38:40.179Z,6.04
2019-05-02T03:41:13.658Z,5.10
2019-05-02T03:43:36.815Z,4.56
2019-05-02T03:46:04.153Z,5.49
2019-05-02T03:48:31.435Z,4.49
2019-05-02T03:50:58.731Z,5.34
2019-05-02T03:53:27.739Z,4.47
2019-05-02T03:55:55.293Z,4.57
2019-05-02T03:58:22.967Z,4.72
2019-05-02T04:01:00.900Z,5.49
2019-05-02T04:03:19.510Z,5.05
2019-05-02T04:05:47.270Z,5.27
2019-05-02T04:08:20.923Z,4.09
2019-05-02T04:11:22.572Z,4.40
2019-05-02T04:13:51.956Z,4.91
2019-05-02T04:16:19.263Z,4.51
2019-05-02T04:18:54.626Z,5.02
2019-05-02T04:21:16.460Z,4.84
2019-05-02T04:23:44.388Z,4.36
2019-05-02T04:26:14.402Z,4.11
2019-05-02T04:28:45.641Z,4.39
2019-05-02T04:31:11.636Z,4.73
2019-05-02T04:33:38.952Z,4.65
2019-05-02T04:36:13.503Z,4.55
2019-05-02T04:38:44.447Z,4.57
2019-05-02T04:41:04.771Z,4.19
2019-05-02T04:43:32.110Z,4.64
2019-05-02T04:46:00.301Z,5.28
2019-05-02T04:48:28.523Z,4.08
2019-05-02T04:50:59.732Z,4.26
2019-05-02T04:53:36.822Z,4.57
2019-05-02T04:56:03.492Z,5.73
2019-05-02T04:58:31.446Z,5.36
2019-05-02T05:00:58.123Z,4.78
2019-05-02T05:03:22.485Z,4.66
2019-05-02T05:05:49.831Z,5.38
2019-05-02T05:08:26.019Z,5.13
2019-05-02T05:10:47.981Z,5.22
2019-05-02T05:13:19.429Z,5.33
2019-05-02T05:15:49.498Z,5.87
2019-05-02T05:18:14.658Z,5.31
2019-05-02T05:20:45.947Z,5.27
2019-05-02T05:23:15.601Z,5.35
2019-05-02T05:25:50.805Z,5.41
2019-05-02T05:28:20.054Z,5.39
2019-05-02T05:30:51.873Z,5.50
2019-05-02T05:33:18.311Z,5.66
2019-05-02T05:35:50.970Z,6.04
2019-05-02T05:38:15.120Z,5.37
2019-05-02T05:40:42.408Z,5.84
2019-05-02T05:43:14.235Z,6.41
2019-05-02T05:45:50.745Z,6.02
2019-05-02T05:48:08.337Z,6.38
2019-05-02T05:50:37.726Z,6.53
2019-05-02T05:53:05.029Z,6.33
2019-05-02T05:55:32.334Z,6.27
2019-05-02T05:58:06.260Z,6.19
2019-05-02T06:00:28.858Z,6.52
2019-05-02T06:03:01.989Z,6.92
2019-05-02T06:05:27.181Z,6.75
2019-05-02T06:07:54.649Z,6.41
2019-05-02T06:10:21.921Z,6.58
2019-05-02T06:13:27.460Z,6.53
2019-05-02T06:16:02.045Z,6.60
2019-05-02T06:18:28.819Z,6.81
2019-05-02T06:20:58.408Z,7.13
2019-05-02T06:23:31.050Z,7.04
2019-05-02T06:26:01.199Z,7.30
2019-05-02T06:28:28.579Z,7.26
2019-05-02T06:30:55.914Z,7.26
2019-05-02T06:33:25.925Z,7.50
2019-05-02T06:36:01.114Z,7.52
2019-05-02T06:38:23.429Z,7.41
2019-05-02T06:40:50.788Z,7.79
2019-05-02T06:43:18.064Z,7.91
2019-05-02T06:45:45.357Z,7.89
2019-05-02T06:48:17.170Z,8.14
2019-05-02T06:50:41.894Z,8.28
2019-05-02T06:53:11.017Z,8.31
2019-05-02T06:55:38.695Z,8.70
2019-05-02T06:58:08.165Z,8.77
2019-05-02T07:00:49.814Z,8.80
2019-05-02T07:03:10.336Z,9.27
2019-05-02T07:05:34.471Z,9.39
2019-05-02T07:08:09.552Z,9.40
2019-05-02T07:10:44.098Z,9.63
2019-05-02T07:13:10.193Z,9.79
2019-05-02T07:15:50.067Z,9.68
2019-05-02T07:18:17.851Z,9.93
2019-05-02T07:20:45.159Z,10.06
2019-05-02T07:23:16.184Z,10.22
2019-05-02T07:25:43.900Z,10.07
2019-05-02T07:28:10.976Z,10.32
2019-05-02T07:30:38.950Z,10.26
2019-05-02T07:33:06.251Z,10.52
2019-05-02T07:35:33.610Z,10.71
2019-05-02T07:38:00.901Z,10.65
2019-05-02T07:40:30.165Z,10.82
2019-05-02T07:42:57.476Z,10.85
2019-05-02T07:45:24.790Z,11.09
2019-05-02T07:47:52.108Z,11.20
2019-05-02T07:50:19.432Z,11.54
2019-05-02T07:52:47.233Z,11.41
2019-05-02T07:55:14.710Z,11.59
2019-05-02T07:57:42.064Z,11.54
2019-05-02T08:00:09.907Z,11.51
2019-05-02T08:02:37.231Z,11.64
2019-05-02T08:05:05.050Z,11.50
2019-05-02T08:07:34.236Z,12.07
2019-05-02T08:10:01.609Z,11.84
2019-05-02T08:12:28.951Z,12.23
2019-05-02T08:14:56.262Z,12.22
2019-05-02T08:17:23.565Z,12.37
2019-05-02T08:19:50.886Z,12.64
2019-05-02T08:22:18.323Z,12.58
2019-05-02T08:24:45.626Z,12.50
2019-05-02T08:27:34.671Z,13.00
2019-05-02T08:30:04.304Z,13.41
2019-05-02T08:32:31.036Z,13.39
2019-05-02T08:34:58.348Z,13.20
2019-05-02T08:37:25.650Z,13.07
2019-05-02T08:39:52.973Z,13.27
2019-05-02T08:42:20.291Z,13.35
2019-05-02T08:44:51.288Z,13.34
2019-05-02T08:47:19.134Z,13.80
2019-05-02T08:49:49.367Z,13.74
2019-05-02T08:52:15.349Z,13.72
2019-05-02T08:54:42.646Z,14.15
2019-05-02T08:57:09.990Z,14.54
2019-05-02T08:59:37.365Z,14.69
2019-05-02T09:02:04.695Z,14.96
2019-05-02T09:04:32.049Z,14.56
2019-05-02T09:07:00.811Z,15.04
2019-05-02T09:09:29.582Z,14.90
2019-05-02T09:12:08.947Z,15.27
2019-05-02T09:14:26.283Z,14.84
2019-05-02T09:16:53.645Z,15.23
2019-05-02T09:19:24.942Z,15.25
2019-05-02T09:21:52.529Z,15.75
2019-05-02T09:24:23.200Z,15.81
2019-05-02T09:26:48.852Z,15.90
2019-05-02T09:29:16.166Z,16.05
2019-05-02T09:31:46.019Z,16.13
2019-05-02T09:34:17.071Z,16.02
2019-05-02T09:36:42.076Z,16.27
2019-05-02T09:39:09.431Z,16.35
2019-05-02T09:41:36.755Z,16.60
2019-05-02T09:44:04.161Z,16.66
2019-05-02T09:46:32.486Z,16.79
2019-05-02T09:49:02.865Z,16.97
2019-05-02T09:51:29.165Z,16.20
2019-05-02T09:53:57.134Z,16.44
2019-05-02T09:56:25.747Z,16.88
2019-05-02T09:58:55.340Z,16.34
2019-05-02T10:01:31.776Z,16.62
2019-05-02T10:03:59.431Z,17.41
2019-05-02T10:06:26.777Z,17.07
2019-05-02T10:08:54.200Z,17.26
2019-05-02T10:11:24.418Z,17.38
2019-05-02T10:13:51.853Z,17.55
2019-05-02T10:16:23.622Z,17.33
2019-05-02T10:18:49.288Z,17.80
2019-05-02T10:21:17.297Z,17.60
2019-05-02T10:23:44.751Z,17.90
2019-05-02T10:26:19.833Z,18.08
2019-05-02T10:28:49.114Z,18.16
2019-05-02T10:31:12.707Z,18.63
2019-05-02T10:33:42.018Z,18.84
2019-05-02T10:36:13.690Z,18.56
2019-05-02T10:38:38.780Z,18.14
2019-05-02T10:41:06.223Z,18.35
2019-05-02T10:43:33.617Z,18.62
2019-05-02T10:46:07.248Z,18.38
2019-05-02T10:48:37.532Z,17.93
2019-05-02T10:51:49.039Z,18.67
2019-05-02T10:54:12.217Z,18.60
2019-05-02T10:56:39.595Z,18.95
2019-05-02T10:59:06.938Z,19.02
2019-05-02T11:02:04.834Z,18.73
2019-05-02T11:04:33.746Z,19.12
2019-05-02T11:07:02.628Z,19.13
2019-05-02T11:09:31.932Z,18.78
2019-05-02T11:12:02.571Z,18.93
2019-05-02T11:14:55.224Z,18.78
2019-05-02T11:17:36.470Z,19.03
2019-05-02T11:20:06.791Z,18.80
2019-05-02T11:22:34.090Z,18.71
2019-05-02T11:25:02.023Z,18.78
2019-05-02T11:27:29.509Z,19.38
2019-05-02T11:29:56.812Z,18.99
2019-05-02T11:32:24.159Z,19.30
2019-05-02T11:34:52.497Z,19.75
2019-05-02T11:37:19.926Z,20.30
2019-05-02T11:39:53.142Z,19.86
2019-05-02T11:42:17.611Z,19.98
2019-05-02T11:44:45.787Z,20.67
2019-05-02T11:47:17.273Z,19.71
2019-05-02T11:49:46.702Z,20.03
2019-05-02T11:52:11.918Z,20.17
2019-05-02T11:54:43.991Z,20.24
2019-05-02T11:57:08.646Z,20.53
2019-05-02T11:59:36.501Z,19.93
2019-05-02T12:02:23.509Z,20.09
2019-05-02T12:04:52.597Z,20.31
2019-05-02T12:07:20.131Z,20.09
2019-05-02T12:09:52.058Z,20.26
2019-05-02T12:12:16.729Z,20.22
2019-05-02T12:14:44.104Z,20.80
2019-05-02T12:17:12.140Z,20.99
2019-05-02T12:19:39.656Z,20.58
2019-05-02T12:22:11.420Z,21.02
2019-05-02T12:24:40.366Z,20.93
2019-05-02T12:27:05.566Z,20.30
2019-05-02T12:29:33.556Z,20.56
2019-05-02T12:32:02.645Z,21.58
2019-05-02T12:34:30.210Z,21.21
2019-05-02T12:36:57.545Z,21.57
2019-05-02T12:39:24.943Z,21.73
2019-05-02T12:41:53.749Z,21.59
2019-05-02T12:44:22.319Z,21.49
2019-05-02T12:46:51.618Z,21.37
2019-05-02T12:49:25.351Z,21.47
2019-05-02T12:51:49.233Z,22.19
2019-05-02T12:54:16.617Z,21.48
2019-05-02T12:56:43.920Z,21.55
2019-05-02T12:59:11.814Z,22.55
2019-05-02T13:01:39.538Z,22.28
2019-05-02T13:04:12.466Z,22.13
2019-05-02T13:06:41.986Z,22.59
2019-05-02T13:09:12.708Z,22.81
2019-05-02T13:12:03.271Z,22.17
2019-05-02T13:14:32.063Z,21.44
2019-05-02T13:17:03.841Z,22.25
2019-05-02T13:19:37.987Z,22.97
2019-05-02T13:22:16.126Z,22.73
2019-05-02T13:24:52.357Z,22.45
2019-05-02T13:27:18.750Z,23.19
2019-05-02T13:29:47.566Z,21.98
2019-05-02T13:32:37.781Z,22.77
2019-05-02T13:35:13.427Z,22.89
2019-05-02T13:37:42.417Z,22.81
2019-05-02T13:40:17.178Z,23.04
2019-05-02T13:42:44.701Z,22.77
2019-05-02T13:45:26.479Z,21.64
2019-05-02T13:47:53.791Z,21.22
2019-05-02T13:50:22.341Z,20.89
2019-05-02T13:52:53.111Z,21.83
2019-05-02T13:55:23.909Z,22.41
2019-05-02T13:57:53.004Z,21.85
2019-05-02T14:00:28.186Z,22.25
2019-05-02T14:02:55.631Z,22.18
2019-05-02T14:05:22.945Z,22.11
2019-05-02T14:07:55.546Z,21.61
2019-05-02T14:10:39.373Z,21.45
2019-05-02T14:13:03.282Z,20.93
2019-05-02T14:15:36.412Z,20.85
2019-05-02T14:18:03.906Z,20.78
2019-05-02T14:20:33.039Z,21.20
2019-05-02T14:23:02.213Z,20.59
2019-05-02T14:25:31.933Z,20.57
2019-05-02T14:27:59.066Z,20.38
2019-05-02T14:30:37.332Z,20.26
2019-05-02T14:33:02.306Z,20.18
2019-05-02T14:35:32.653Z,20.01
2019-05-02T14:38:10.295Z,19.65
2019-05-02T14:40:47.152Z,19.64
2019-05-02T14:43:38.087Z,19.63
2019-05-02T14:46:03.666Z,19.76
2019-05-02T14:48:41.003Z,19.60
2019-05-02T14:51:05.046Z,20.15
2019-05-02T14:53:32.391Z,19.89
2019-05-02T14:56:09.854Z,19.59
2019-05-02T14:58:37.911Z,19.71
2019-05-02T15:01:05.805Z,19.82
2019-05-02T15:03:33.147Z,19.76
2019-05-02T15:06:04.187Z,19.57
2019-05-02T15:08:29.839Z,19.71
2019-05-02T15:10:57.166Z,19.80
2019-05-02T15:13:24.581Z,20.38
2019-05-02T15:15:53.038Z,20.29
2019-05-02T15:18:22.702Z,20.12
2019-05-02T15:20:51.996Z,19.66
2019-05-02T15:23:19.825Z,20.06
2019-05-02T15:25:52.529Z,20.29
2019-05-02T15:28:22.665Z,20.13
2019-05-02T15:31:05.057Z,20.18
2019-05-02T15:33:34.938Z,19.89
2019-05-02T15:36:07.411Z,19.96
2019-05-02T15:38:37.158Z,19.95
2019-05-02T15:41:05.022Z,20.01
2019-05-02T15:43:31.830Z,19.84
2019-05-02T15:45:59.347Z,19.28
2019-05-02T15:48:27.745Z,20.05
2019-05-02T15:50:59.717Z,20.11
2019-05-02T15:53:32.862Z,19.99
2019-05-02T15:56:01.968Z,20.32
2019-05-02T15:58:29.417Z,20.33
2019-05-02T16:01:16.857Z,19.67
2019-05-02T16:03:46.573Z,19.38
2019-05-02T16:06:16.601Z,19.11
2019-05-02T16:08:45.807Z,19.61
2019-05-02T16:11:16.954Z,19.20
2019-05-02T16:13:46.994Z,19.19
2019-05-02T16:16:13.277Z,19.33
2019-05-02T16:18:43.511Z,19.06
2019-05-02T16:21:18.377Z,19.08
2019-05-02T16:24:10.846Z,18.80
2019-05-02T16:26:37.162Z,18.96
2019-05-02T16:29:02.826Z,18.82
2019-05-02T16:31:32.253Z,18.96
2019-05-02T16:33:59.605Z,19.17
2019-05-02T16:36:33.830Z,18.95
2019-05-02T16:38:56.227Z,18.84
2019-05-02T16:41:23.615Z,18.82
2019-05-02T16:43:51.890Z,18.47
2019-05-02T16:46:21.601Z,18.58
2019-05-02T16:48:48.819Z,18.66
2019-05-02T16:51:30.260Z,18.71
2019-05-02T16:53:45.454Z,18.96
2019-05-02T16:56:12.917Z,18.81
2019-05-02T16:58:43.295Z,18.85
2019-05-02T17:01:09.679Z,19.05
2019-05-02T17:03:37.071Z,18.30
2019-05-02T17:06:04.550Z,18.53
2019-05-02T17:08:49.517Z,18.62
2019-05-02T17:11:31.373Z,18.34
2019-05-02T17:13:56.812Z,17.92
2019-05-02T17:16:24.169Z,17.66
2019-05-02T17:18:54.961Z,17.56
2019-05-02T17:21:22.172Z,17.38
2019-05-02T17:23:52.194Z,17.33
2019-05-02T17:26:18.981Z,17.57
2019-05-02T17:28:47.265Z,17.80
2019-05-02T17:31:19.624Z,17.58
2019-05-02T17:33:46.290Z,17.49
2019-05-02T17:36:13.520Z,17.73
2019-05-02T17:38:41.861Z,17.65
2019-05-02T17:41:09.381Z,17.49
2019-05-02T17:43:37.403Z,17.34
2019-05-02T17:46:07.587Z,17.58
2019-05-02T17:48:37.466Z,17.08
2019-05-02T17:51:22.751Z,16.96
2019-05-02T17:53:52.283Z,16.60
2019-05-02T17:56:22.331Z,16.63
2019-05-02T17:58:54.106Z,16.45
2019-05-02T18:01:26.436Z,16.23
2019-05-02T18:03:55.334Z,16.02
2019-05-02T18:06:32.684Z,15.73
2019-05-02T18:08:55.269Z,15.93
2019-05-02T18:11:22.358Z,15.94
2019-05-02T18:13:51.717Z,15.68
2019-05-02T18:16:19.508Z,15.03
2019-05-02T18:18:47.117Z,15.09
2019-05-02T18:21:17.216Z,14.98
2019-05-02T18:23:44.184Z,14.97
2019-05-02T18:26:11.914Z,14.12
2019-05-02T18:28:46.841Z,13.30
2019-05-02T18:31:08.886Z,14.19
2019-05-02T18:33:41.157Z,13.49
2019-05-02T18:36:06.349Z,13.35
2019-05-02T18:38:34.168Z,12.34
2019-05-02T18:41:05.822Z,12.58
2019-05-02T18:43:31.608Z,12.88
2019-05-02T18:46:07.388Z,12.65
2019-05-02T18:48:36.614Z,12.29
2019-05-02T18:51:03.304Z,12.48
2019-05-02T18:53:32.711Z,12.57
2019-05-02T18:56:01.777Z,12.25
2019-05-02T18:58:31.945Z,11.85
2019-05-02T19:01:00.297Z,12.18
2019-05-02T19:03:28.345Z,12.23
2019-05-02T19:06:02.208Z,11.45
2019-05-02T19:08:45.191Z,11.48
2019-05-02T19:11:10.010Z,12.33
2019-05-02T19:13:32.855Z,11.67
2019-05-02T19:16:02.400Z,11.76
2019-05-02T19:18:32.647Z,11.62
2019-05-02T19:21:02.780Z,12.00
2019-05-02T19:23:31.984Z,11.89
2019-05-02T19:26:02.309Z,11.47
2019-05-02T19:28:39.462Z,11.55
2019-05-02T19:31:07.578Z,11.68
2019-05-02T19:33:37.421Z,11.63
2019-05-02T19:36:06.137Z,11.56
2019-05-02T19:38:34.913Z,11.30
2019-05-02T19:41:08.803Z,11.44
2019-05-02T19:43:34.936Z,12.38
2019-05-02T19:46:03.400Z,11.01
2019-05-02T19:48:36.762Z,11.85
2019-05-02T19:51:02.558Z,11.72
2019-05-02T19:53:32.317Z,10.89
2019-05-02T19:56:01.349Z,11.34
2019-05-02T19:58:31.999Z,11.69
2019-05-02T20:01:02.050Z,11.86
2019-05-02T20:03:32.148Z,11.12
2019-05-02T20:06:02.275Z,11.83
2019-05-02T20:08:30.018Z,11.45
2019-05-02T20:10:58.498Z,10.74
2019-05-02T20:13:30.615Z,11.29
2019-05-02T20:16:12.554Z,10.87
2019-05-02T20:18:46.968Z,10.76
2019-05-02T20:21:27.258Z,10.65
2019-05-02T20:23:49.760Z,10.76
2019-05-02T20:26:17.298Z,10.73
2019-05-02T20:28:44.836Z,10.89
2019-05-02T20:31:12.654Z,10.28
2019-05-02T20:33:42.849Z,9.92
2019-05-02T20:36:12.387Z,10.38
2019-05-02T20:38:42.407Z,10.46
2019-05-02T20:41:10.059Z,9.97
2019-05-02T20:43:38.486Z,9.78
2019-05-02T20:46:05.942Z,10.46
2019-05-02T20:48:33.455Z,10.30
2019-05-02T20:51:02.512Z,9.77
2019-05-02T20:53:31.860Z,9.80
2019-05-02T20:56:01.681Z,10.10
2019-05-02T20:58:30.177Z,9.93
2019-05-02T21:01:07.827Z,9.78
2019-05-02T21:03:29.696Z,10.23
2019-05-02T21:06:12.930Z,9.94
2019-05-02T21:09:02.044Z,10.07
2019-05-02T21:11:29.049Z,9.53
2019-05-02T21:13:56.398Z,9.41
2019-05-02T21:16:23.742Z,9.73
2019-05-02T21:18:51.062Z,10.20
2019-05-02T21:21:21.921Z,9.37
2019-05-02T21:23:49.633Z,9.48
2019-05-02T21:26:16.946Z,9.63
2019-05-02T21:28:46.179Z,9.27
2019-05-02T21:31:13.498Z,9.19
2019-05-02T21:33:42.798Z,9.51
2019-05-02T21:36:12.015Z,9.13
2019-05-02T21:38:39.599Z,9.20
2019-05-02T21:41:09.304Z,9.14
2019-05-02T21:43:36.680Z,8.69
2019-05-02T21:46:03.966Z,8.56
2019-05-02T21:48:32.710Z,8.36
2019-05-02T21:51:19.718Z,8.28
2019-05-02T21:54:03.301Z,8.67
2019-05-02T21:56:52.310Z,8.51
2019-05-02T21:59:19.628Z,8.47
2019-05-02T22:01:51.751Z,8.29
2019-05-02T22:04:19.220Z,8.30
2019-05-02T22:06:46.579Z,8.29
2019-05-02T22:09:14.246Z,8.69
2019-05-02T22:11:43.001Z,8.95
2019-05-02T22:14:10.466Z,8.40
2019-05-02T22:16:37.803Z,9.25
2019-05-02T22:19:05.325Z,8.58
2019-05-02T22:21:35.187Z,9.31
2019-05-02T22:24:09.766Z,8.44
2019-05-02T22:26:32.720Z,8.95
2019-05-02T22:29:01.932Z,8.93
2019-05-02T22:31:29.575Z,8.46
2019-05-02T22:33:56.924Z,8.78
2019-05-02T22:36:24.177Z,9.39
2019-05-02T22:39:02.689Z,9.66
2019-05-02T22:41:30.016Z,9.23
2019-05-02T22:43:57.306Z,9.33
2019-05-02T22:46:43.228Z,9.41
2019-05-02T22:49:14.639Z,9.64
2019-05-02T22:51:42.617Z,9.36
2019-05-02T22:54:23.363Z,9.38
2019-05-02T22:56:42.461Z,9.63
2019-05-02T22:59:09.887Z,9.07
2019-05-02T23:01:37.198Z,8.84
2019-05-02T23:04:04.839Z,8.90
2019-05-02T23:06:32.142Z,9.29
2019-05-02T23:08:59.549Z,8.82
2019-05-02T23:11:26.908Z,8.81
2019-05-02T23:13:54.200Z,8.94
2019-05-02T23:16:21.546Z,8.98
2019-05-02T23:18:48.826Z,8.88
2019-05-02T23:21:16.136Z,9.13
2019-05-02T23:23:43.458Z,9.66
2019-05-02T23:26:22.466Z,9.21
2019-05-02T23:28:51.748Z,9.46
2019-05-02T23:31:19.175Z,9.57
2019-05-02T23:33:58.699Z,9.47
2019-05-02T23:36:27.793Z,9.42
2019-05-02T23:38:55.070Z,8.91
2019-05-02T23:41:22.537Z,9.20
2019-05-02T23:43:49.942Z,9.20
2019-05-02T23:46:17.257Z,9.20
2019-05-02T23:48:44.577Z,9.32
2019-05-02T23:51:12.173Z,9.20
2019-05-02T23:53:39.597Z,9.27
2019-05-02T23:56:06.916Z,9.37
2019-05-02T23:58:34.237Z,9.50
